createdAt,value
2022-08-08T00:02:03.697Z,88.28
2022-08-08T00:04:40.378Z,88.60
2022-08-08T00:07:23.789Z,89.27
2022-08-08T00:10:08.147Z,89.47
2022-08-08T00:12:48.533Z,88.76
2022-08-08T00:15:57.104Z,88.66
2022-08-08T00:18:27.180Z,89.58
2022-08-08T00:20:59.217Z,89.54
2022-08-08T00:23:43.404Z,89.30
2022-08-08T00:26:29.385Z,89.49
2022-08-08T00:29:08.104Z,89.78
2022-08-08T00:32:16.410Z,90.32
2022-08-08T00:35:10.316Z,89.70
2022-08-08T00:38:06.558Z,89.59
2022-08-08T00:41:14.471Z,89.68
2022-08-08T00:44:25.820Z,89.73
2022-08-08T00:47:36.770Z,88.94
2022-08-08T00:51:06.958Z,88.56
2022-08-08T00:54:13.718Z,87.73
2022-08-08T00:57:19.906Z,88.05
2022-08-08T01:00:11.769Z,88.72
2022-08-08T01:04:02.252Z,88.83
2022-08-08T01:07:05.761Z,87.61
2022-08-08T01:10:15.529Z,87.47
2022-08-08T01:13:23.059Z,88.08
2022-08-08T01:16:37.353Z,87.50
2022-08-08T01:19:51.968Z,87.51
2022-08-08T01:22:58.274Z,87.53
2022-08-08T01:26:11.429Z,88.08
2022-08-08T01:29:17.827Z,88.31
2022-08-08T01:32:34.664Z,89.07
2022-08-08T01:35:29.592Z,88.99
2022-08-08T01:38:20.908Z,89.48
2022-08-08T01:41:04.432Z,88.82
2022-08-08T01:43:53.013Z,89.13
2022-08-08T01:46:42.284Z,89.06
2022-08-08T01:49:37.809Z,88.54
2022-08-08T01:54:29.804Z,89.04
2022-08-08T01:56:26.608Z,88.82
2022-08-08T01:58:46.502Z,89.61
2022-08-08T02:02:02.976Z,89.21
2022-08-08T02:04:47.782Z,88.89
2022-08-08T02:07:41.503Z,88.28
2022-08-08T02:10:37.297Z,87.77
2022-08-08T02:13:54.623Z,87.64
2022-08-08T02:16:22.917Z,88.16
2022-08-08T02:19:26.845Z,87.85
2022-08-08T02:22:20.286Z,88.23
2022-08-08T02:25:11.704Z,88.86
2022-08-08T02:27:56.829Z,90.35
2022-08-08T02:30:50.017Z,89.98
2022-08-08T02:34:08.140Z,89.10
2022-08-08T02:36:56.314Z,88.40
2022-08-08T02:40:00.191Z,88.50
2022-08-08T02:44:39.377Z,88.52
2022-08-08T02:46:38.173Z,87.94
2022-08-08T02:49:53.758Z,88.58
2022-08-08T02:52:50.958Z,88.78
2022-08-08T02:56:08.640Z,88.45
2022-08-08T02:59:56.953Z,88.92
2022-08-08T03:03:01.585Z,88.96
2022-08-08T03:06:13.262Z,88.97
2022-08-08T03:09:33.136Z,88.90
2022-08-08T03:13:01.351Z,88.13
2022-08-08T03:16:08.146Z,87.97
2022-08-08T03:18:53.899Z,88.29
2022-08-08T03:21:27.070Z,87.53
2022-08-08T03:24:12.587Z,87.78
2022-08-08T03:26:53.536Z,87.92
2022-08-08T03:29:55.031Z,87.82
2022-08-08T03:32:31.413Z,87.79
2022-08-08T03:35:01.748Z,88.29
2022-08-08T03:38:54.775Z,88.14
2022-08-08T03:40:30.651Z,89.28
2022-08-08T03:43:16.790Z,89.38
2022-08-08T03:46:05.066Z,89.64
2022-08-08T03:49:55.109Z,89.62
2022-08-08T03:51:40.540Z,89.66
2022-08-08T03:54:40.732Z,89.18
2022-08-08T03:58:30.524Z,89.91
2022-08-08T04:00:18.311Z,90.48
2022-08-08T04:02:58.291Z,90.29
2022-08-08T04:05:30.501Z,89.93
2022-08-08T04:08:10.070Z,90.20
2022-08-08T04:10:40.179Z,90.12
2022-08-08T04:13:18.900Z,90.67
2022-08-08T04:16:03.822Z,90.80
2022-08-08T04:18:48.725Z,90.57
2022-08-08T04:21:26.004Z,90.87
2022-08-08T04:24:11.666Z,91.35
2022-08-08T04:26:57.219Z,91.38
2022-08-08T04:29:33.258Z,91.36
2022-08-08T04:32:10.562Z,90.21
2022-08-08T04:34:55.639Z,90.25
2022-08-08T04:37:32.987Z,89.74
2022-08-08T04:40:12.794Z,89.73
2022-08-08T04:42:56.837Z,88.64
2022-08-08T04:45:35.010Z,87.56
2022-08-08T04:48:07.349Z,86.68
2022-08-08T04:50:44.533Z,87.04
2022-08-08T04:54:26.916Z,85.98
2022-08-08T04:56:13.662Z,84.75
2022-08-08T04:58:43.588Z,83.04
2022-08-08T05:01:19.452Z,82.02
2022-08-08T05:04:10.299Z,81.89
2022-08-08T05:06:47.084Z,81.80
2022-08-08T05:09:21.079Z,81.55
2022-08-08T05:11:56.697Z,81.92
2022-08-08T05:14:30.535Z,81.65
2022-08-08T05:17:09.051Z,80.51
2022-08-08T05:20:10.794Z,79.31
2022-08-08T05:22:38.876Z,77.63
2022-08-08T05:25:09.709Z,76.49
2022-08-08T05:27:41.455Z,74.08
2022-08-08T05:30:13.900Z,72.18
2022-08-08T05:33:03.318Z,72.66
2022-08-08T05:35:39.668Z,72.72
2022-08-08T05:38:31.592Z,74.22
2022-08-08T05:41:11.301Z,73.43
2022-08-08T05:44:03.907Z,73.62
2022-08-08T05:46:35.411Z,74.75
2022-08-08T05:49:11.372Z,74.30
2022-08-08T05:51:48.846Z,74.30
2022-08-08T05:54:49.676Z,74.52
2022-08-08T05:57:20.925Z,74.64
2022-08-08T06:00:25.373Z,73.96
2022-08-08T06:03:13.131Z,73.82
2022-08-08T06:06:01.195Z,72.53
2022-08-08T06:08:36.481Z,72.38
2022-08-08T06:11:13.361Z,72.10
2022-08-08T06:13:49.285Z,71.24
2022-08-08T06:16:27.642Z,70.89
2022-08-08T06:19:03.868Z,70.08
2022-08-08T06:21:51.771Z,69.05
2022-08-08T06:24:38.342Z,68.54
2022-08-08T06:27:13.101Z,68.72
2022-08-08T06:30:01.060Z,68.69
2022-08-08T06:32:47.603Z,68.61
2022-08-08T06:36:08.601Z,68.87
2022-08-08T06:38:18.904Z,69.12
2022-08-08T06:40:56.433Z,68.78
2022-08-08T06:43:37.115Z,68.14
2022-08-08T06:46:23.714Z,68.48
2022-08-08T06:48:57.392Z,68.92
2022-08-08T06:51:31.373Z,69.63
2022-08-08T06:54:24.917Z,69.46
2022-08-08T06:56:58.815Z,69.85
2022-08-08T06:59:34.499Z,70.08
2022-08-08T07:02:28.749Z,70.54
2022-08-08T07:05:06.996Z,70.28
2022-08-08T07:07:52.175Z,69.66
2022-08-08T07:10:28.520Z,70.07
2022-08-08T07:13:06.127Z,69.87
2022-08-08T07:16:04.879Z,69.16
2022-08-08T07:18:49.489Z,70.11
2022-08-08T07:21:24.585Z,70.47
2022-08-08T07:24:09.570Z,71.14
2022-08-08T07:26:54.169Z,71.35
2022-08-08T07:30:00.975Z,71.15
2022-08-08T07:32:17.403Z,70.86
2022-08-08T07:35:01.381Z,71.39
2022-08-08T07:37:55.454Z,70.65
2022-08-08T07:40:50.628Z,70.06
2022-08-08T07:43:36.919Z,68.27
2022-08-08T07:46:23.128Z,67.75
2022-08-08T07:49:01.189Z,66.48
2022-08-08T07:51:45.425Z,66.90
2022-08-08T07:54:43.141Z,68.98
2022-08-08T07:57:22.096Z,70.66
2022-08-08T08:00:13.355Z,72.23
2022-08-08T08:03:20.716Z,73.35
2022-08-08T08:06:01.557Z,74.27
2022-08-08T08:08:50.259Z,74.73
2022-08-08T08:11:33.836Z,73.23
2022-08-08T08:14:10.925Z,73.41
2022-08-08T08:16:50.792Z,73.73
2022-08-08T08:19:32.060Z,73.66
2022-08-08T08:22:31.271Z,74.55
2022-08-08T08:25:07.515Z,74.81
2022-08-08T08:27:46.724Z,75.21
2022-08-08T08:30:17.567Z,74.40
2022-08-08T08:32:51.807Z,73.48
2022-08-08T08:35:29.916Z,72.23
2022-08-08T08:38:18.191Z,70.40
2022-08-08T08:40:59.073Z,68.51
2022-08-08T08:43:30.845Z,68.15
2022-08-08T08:46:03.581Z,68.72
2022-08-08T08:48:49.193Z,67.67
2022-08-08T08:51:21.922Z,66.70
2022-08-08T08:53:59.193Z,64.98
2022-08-08T08:56:34.166Z,63.85
2022-08-08T08:59:15.329Z,63.63
2022-08-08T09:01:55.359Z,61.96
2022-08-08T09:04:38.527Z,60.04
2022-08-08T09:07:20.730Z,58.80
2022-08-08T09:09:55.318Z,57.31
2022-08-08T09:12:41.795Z,56.63
2022-08-08T09:15:37.020Z,55.87
2022-08-08T09:18:06.088Z,56.45
2022-08-08T09:22:00.704Z,58.13
2022-08-08T09:23:33.562Z,59.47
2022-08-08T09:26:17.893Z,59.12
2022-08-08T09:28:51.534Z,58.01
2022-08-08T09:31:56.577Z,58.09
2022-08-08T09:34:37.769Z,56.79
2022-08-08T09:37:37.345Z,56.42
2022-08-08T09:40:13.589Z,56.78
2022-08-08T09:42:51.127Z,57.05
2022-08-08T09:45:54.952Z,57.17
2022-08-08T09:48:21.403Z,56.85
2022-08-08T09:50:56.205Z,56.92
2022-08-08T09:53:56.516Z,56.83
2022-08-08T09:56:27.792Z,56.94
2022-08-08T09:59:14.908Z,57.22
2022-08-08T10:01:59.362Z,57.19
2022-08-08T10:04:41.439Z,56.28
2022-08-08T10:07:15.876Z,56.18
2022-08-08T10:10:00.015Z,55.61
2022-08-08T10:12:38.794Z,56.71
2022-08-08T10:15:25.436Z,56.98
2022-08-08T10:18:06.585Z,57.56
2022-08-08T10:20:57.646Z,59.16
2022-08-08T10:23:48.321Z,58.75
2022-08-08T10:26:30.563Z,58.87
2022-08-08T10:29:21.117Z,60.25
2022-08-08T10:32:12.431Z,60.71
2022-08-08T10:34:58.725Z,61.06
2022-08-08T10:37:34.719Z,59.99
2022-08-08T10:40:17.527Z,60.33
2022-08-08T10:42:57.145Z,59.64
2022-08-08T10:45:29.293Z,60.29
2022-08-08T10:48:13.665Z,61.09
2022-08-08T10:50:42.946Z,61.85
2022-08-08T10:53:13.431Z,60.37
2022-08-08T10:55:45.743Z,60.04
2022-08-08T10:58:18.773Z,59.31
2022-08-08T11:00:53.619Z,59.31
2022-08-08T11:04:00.932Z,59.69
2022-08-08T11:06:34.491Z,60.52
2022-08-08T11:09:15.146Z,61.20
2022-08-08T11:12:05.099Z,62.66
2022-08-08T11:14:53.145Z,62.78
2022-08-08T11:17:58.392Z,64.53
2022-08-08T11:20:18.311Z,65.10
2022-08-08T11:22:54.968Z,64.93
2022-08-08T11:25:53.449Z,65.27
2022-08-08T11:28:18.666Z,64.44
2022-08-08T11:30:53.008Z,64.04
2022-08-08T11:33:51.651Z,63.67
2022-08-08T11:36:17.763Z,63.11
2022-08-08T11:38:54.726Z,62.38
2022-08-08T11:41:27.689Z,62.33
2022-08-08T11:43:58.618Z,62.38
2022-08-08T11:46:34.064Z,62.87
2022-08-08T11:49:05.552Z,62.89
2022-08-08T11:51:49.920Z,63.19
2022-08-08T11:54:33.975Z,62.67
2022-08-08T11:57:13.837Z,62.11
2022-08-08T12:00:02.087Z,62.80
2022-08-08T12:02:54.373Z,62.38
2022-08-08T12:05:34.409Z,63.36
2022-08-08T12:08:05.957Z,63.35
2022-08-08T12:10:36.309Z,63.78
2022-08-08T12:13:09.723Z,64.19
2022-08-08T12:15:47.812Z,64.01
2022-08-08T12:18:35.400Z,63.61
2022-08-08T12:21:10.327Z,63.62
2022-08-08T12:23:51.847Z,63.46
2022-08-08T12:26:38.690Z,65.30
2022-08-08T12:29:36.216Z,65.69
2022-08-08T12:32:13.416Z,66.42
2022-08-08T12:35:13.285Z,66.69
2022-08-08T12:38:02.393Z,66.58
2022-08-08T12:40:54.399Z,66.42
2022-08-08T12:43:32.828Z,65.13
2022-08-08T12:46:19.215Z,65.11
2022-08-08T12:57:31.944Z,65.95
2022-08-08T13:00:13.532Z,66.09
2022-08-08T13:02:53.121Z,66.23
2022-08-08T13:05:26.569Z,65.88
2022-08-08T13:08:17.236Z,66.17
2022-08-08T13:10:58.285Z,65.83
2022-08-08T13:13:34.617Z,65.63
2022-08-08T13:16:19.702Z,64.74
2022-08-08T13:18:58.338Z,64.80
2022-08-08T13:21:49.045Z,63.64
2022-08-08T13:24:40.714Z,64.21
2022-08-08T13:27:15.262Z,64.66
2022-08-08T13:29:55.408Z,65.25
2022-08-08T13:32:26.252Z,65.96
2022-08-08T13:34:57.462Z,66.22
2022-08-08T13:38:05.801Z,66.83
2022-08-08T13:40:26.547Z,68.09
2022-08-08T13:42:58.571Z,67.85
2022-08-08T13:45:30.762Z,68.34
2022-08-08T13:48:01.313Z,69.41
2022-08-08T13:50:49.132Z,68.59
2022-08-08T13:53:33.793Z,68.19
2022-08-08T13:56:11.194Z,68.20
2022-08-08T13:58:56.252Z,67.89
2022-08-08T14:01:52.573Z,67.04
2022-08-08T14:04:25.300Z,66.75
2022-08-08T14:07:06.933Z,66.36
2022-08-08T14:10:05.665Z,66.24
2022-08-08T14:12:33.807Z,66.35
2022-08-08T14:15:03.388Z,67.09
2022-08-08T14:17:58.184Z,67.26
2022-08-08T14:20:55.874Z,67.60
2022-08-08T14:24:06.849Z,67.61
2022-08-08T14:26:28.029Z,67.84
2022-08-08T14:28:58.795Z,68.07
2022-08-08T14:32:05.833Z,68.58
2022-08-08T14:34:23.268Z,68.64
2022-08-08T14:36:57.230Z,68.29
2022-08-08T14:39:48.348Z,68.27
2022-08-08T14:42:22.323Z,67.18
2022-08-08T14:45:01.059Z,66.65
2022-08-08T14:47:36.197Z,66.82
2022-08-08T14:50:38.354Z,66.48
2022-08-08T14:53:07.162Z,67.29
2022-08-08T14:55:41.987Z,67.69
2022-08-08T14:58:16.600Z,67.98
2022-08-08T15:00:51.999Z,68.12
2022-08-08T15:03:21.214Z,68.13
2022-08-08T15:05:57.832Z,67.35
2022-08-08T15:08:34.880Z,67.04
2022-08-08T15:11:11.270Z,67.62
2022-08-08T15:14:00.846Z,67.19
2022-08-08T15:16:34.718Z,67.07
2022-08-08T15:19:06.960Z,66.97
2022-08-08T15:21:42.817Z,67.63
2022-08-08T15:24:14.253Z,67.62
2022-08-08T15:26:52.428Z,67.57
2022-08-08T15:29:24.222Z,67.58
2022-08-08T15:32:17.925Z,67.91
2022-08-08T15:34:44.079Z,67.62
2022-08-08T15:37:17.206Z,68.58
2022-08-08T15:39:47.903Z,68.80
2022-08-08T15:42:32.330Z,68.87
2022-08-08T15:45:02.747Z,69.65
2022-08-08T15:47:34.916Z,69.75
2022-08-08T15:50:09.618Z,68.79
2022-08-08T15:52:53.642Z,69.62
2022-08-08T15:55:25.248Z,69.87
2022-08-08T15:57:55.204Z,69.91
2022-08-08T16:00:26.908Z,69.54
2022-08-08T16:02:59.379Z,69.11
2022-08-08T16:05:35.831Z,69.42
2022-08-08T16:08:20.958Z,68.40
2022-08-08T16:13:15.517Z,68.52
2022-08-08T16:13:45.972Z,68.02
2022-08-08T16:16:18.102Z,67.18
2022-08-08T16:18:53.439Z,67.28
2022-08-08T16:21:29.323Z,67.12
2022-08-08T16:24:04.729Z,66.55
2022-08-08T16:26:36.416Z,67.11
2022-08-08T16:29:15.485Z,67.49
2022-08-08T16:31:48.864Z,67.72
2022-08-08T16:34:21.143Z,67.99
2022-08-08T16:36:54.111Z,67.65
2022-08-08T16:39:59.615Z,68.06
2022-08-08T16:42:18.509Z,68.63
2022-08-08T16:44:54.507Z,68.98
2022-08-08T16:47:40.205Z,69.77
2022-08-08T16:50:15.535Z,70.95
2022-08-08T16:55:03.547Z,72.17
2022-08-08T16:55:55.572Z,72.93
2022-08-08T16:58:34.313Z,73.53
2022-08-08T17:01:06.191Z,74.32
2022-08-08T17:04:00.638Z,73.33
2022-08-08T17:06:37.252Z,74.25
2022-08-08T17:09:15.063Z,74.91
2022-08-08T17:11:56.599Z,75.19
2022-08-08T17:14:33.868Z,75.53
2022-08-08T17:17:05.642Z,75.96
2022-08-08T17:19:56.001Z,75.90
2022-08-08T17:22:39.308Z,75.78
2022-08-08T17:25:12.078Z,76.19
2022-08-08T17:27:47.623Z,76.05
2022-08-08T17:30:27.630Z,75.84
2022-08-08T17:34:35.792Z,75.57
2022-08-08T17:35:55.680Z,75.77
2022-08-08T17:38:36.458Z,75.73
2022-08-08T17:41:06.190Z,75.49
2022-08-08T17:44:01.238Z,75.00
2022-08-08T17:46:43.075Z,75.03
2022-08-08T17:49:16.532Z,75.35
2022-08-08T17:51:53.938Z,75.65
2022-08-08T17:54:26.057Z,75.51
2022-08-08T17:56:58.757Z,76.01
2022-08-08T17:59:30.537Z,76.30
2022-08-08T18:02:11.306Z,76.60
2022-08-08T18:04:50.752Z,76.75
2022-08-08T18:08:04.063Z,77.31
2022-08-08T18:10:10.636Z,77.32
2022-08-08T18:12:40.113Z,77.23
2022-08-08T18:15:14.555Z,77.56
2022-08-08T18:18:09.882Z,77.22
2022-08-08T18:20:43.804Z,77.28
2022-08-08T18:23:23.344Z,76.86
2022-08-08T18:25:53.307Z,77.00
2022-08-08T18:28:23.525Z,77.80
2022-08-08T18:30:57.444Z,77.90
2022-08-08T18:34:12.267Z,78.77
2022-08-08T18:36:22.837Z,78.66
2022-08-08T18:38:53.916Z,78.36
2022-08-08T18:41:51.361Z,78.39
2022-08-08T18:44:12.960Z,78.76
2022-08-08T18:46:54.320Z,79.07
2022-08-08T18:49:32.220Z,79.08
2022-08-08T18:52:22.395Z,79.45
2022-08-08T18:55:01.052Z,79.99
2022-08-08T18:57:44.748Z,79.86
2022-08-08T19:00:20.170Z,80.06
2022-08-08T19:02:57.835Z,80.04
2022-08-08T19:05:38.571Z,80.66
2022-08-08T19:08:25.175Z,81.32
2022-08-08T19:11:02.282Z,81.32
2022-08-08T19:13:53.014Z,81.69
2022-08-08T19:16:28.547Z,81.43
2022-08-08T19:19:13.494Z,82.12
2022-08-08T19:21:49.920Z,82.37
2022-08-08T19:24:49.370Z,82.91
2022-08-08T19:27:10.773Z,83.17
2022-08-08T19:29:42.190Z,83.84
2022-08-08T19:32:13.165Z,84.53
2022-08-08T19:34:51.520Z,84.81
2022-08-08T19:37:42.314Z,85.07
2022-08-08T19:40:14.645Z,85.26
2022-08-08T19:42:47.228Z,85.16
2022-08-08T19:45:58.861Z,85.36
2022-08-08T19:48:29.096Z,85.63
2022-08-08T19:51:01.731Z,85.64
2022-08-08T19:53:51.358Z,85.80
2022-08-08T19:56:25.709Z,85.99
2022-08-08T19:59:10.167Z,86.01
2022-08-08T20:02:00.935Z,85.86
2022-08-08T20:04:34.089Z,86.10
2022-08-08T20:08:39.312Z,86.83
2022-08-08T20:09:58.507Z,86.58
2022-08-08T20:12:32.786Z,87.63
2022-08-08T20:15:14.855Z,87.75
2022-08-08T20:17:48.116Z,88.34
2022-08-08T20:20:20.479Z,88.49
2022-08-08T20:22:56.080Z,89.58
2022-08-08T20:25:29.876Z,90.23
2022-08-08T20:28:05.703Z,90.88
2022-08-08T20:30:53.427Z,91.13
2022-08-08T20:35:58.011Z,91.39
2022-08-08T20:38:37.089Z,91.50
2022-08-08T20:41:17.479Z,91.49
2022-08-08T20:43:50.227Z,91.59
2022-08-08T20:46:25.314Z,92.04
2022-08-08T20:48:58.538Z,91.21
2022-08-08T20:51:32.328Z,91.58
2022-08-08T20:54:14.124Z,91.53
2022-08-08T20:57:04.006Z,91.62
2022-08-08T20:59:41.031Z,91.30
2022-08-08T21:02:12.501Z,91.60
2022-08-08T21:04:43.121Z,91.93
2022-08-08T21:07:17.301Z,91.73
2022-08-08T21:10:13.002Z,91.94
2022-08-08T21:12:45.960Z,92.55
2022-08-08T21:16:04.970Z,92.50
2022-08-08T21:18:06.171Z,92.84
2022-08-08T21:20:36.455Z,92.74
2022-08-08T21:23:09.310Z,91.75
2022-08-08T21:25:40.817Z,91.13
2022-08-08T21:28:15.960Z,91.23
2022-08-08T21:30:51.909Z,91.33
2022-08-08T21:33:22.318Z,90.52
2022-08-08T21:36:18.258Z,90.70
2022-08-08T21:38:41.085Z,90.44
2022-08-08T21:41:28.795Z,91.10
2022-08-08T21:44:04.505Z,92.03
2022-08-08T21:48:06.186Z,92.13
2022-08-08T21:49:23.789Z,92.29
2022-08-08T21:54:20.243Z,92.18
2022-08-08T21:55:01.719Z,92.69
2022-08-08T21:57:42.902Z,93.26
2022-08-08T22:00:26.080Z,92.74
2022-08-08T22:02:55.712Z,95.32
2022-08-08T22:05:25.045Z,98.18
2022-08-08T22:08:00.313Z,100.00
2022-08-08T22:10:32.643Z,100.00
2022-08-08T22:13:18.565Z,100.00
2022-08-08T22:16:00.427Z,100.00
2022-08-08T22:18:33.121Z,100.00
2022-08-08T22:21:14.648Z,100.00
2022-08-08T22:23:51.469Z,100.00
2022-08-08T22:26:29.390Z,100.00
2022-08-08T22:29:57.074Z,100.00
2022-08-08T22:32:01.526Z,100.00
2022-08-08T22:34:39.456Z,100.00
2022-08-08T22:37:14.802Z,100.00
2022-08-08T22:40:00.324Z,100.00
2022-08-08T22:42:34.457Z,100.00
2022-08-08T22:45:12.620Z,100.00
2022-08-08T22:47:46.863Z,100.00
2022-08-08T22:50:25.961Z,100.00
2022-08-08T22:53:22.551Z,100.00
2022-08-08T22:55:58.034Z,100.00
2022-08-08T22:58:31.245Z,100.00
2022-08-08T23:01:30.588Z,100.00
2022-08-08T23:03:55.982Z,99.52
2022-08-08T23:06:25.716Z,99.17
2022-08-08T23:09:00.200Z,98.95
2022-08-08T23:12:17.761Z,99.19
2022-08-08T23:14:22.051Z,98.65
2022-08-08T23:16:59.387Z,98.17
2022-08-08T23:19:30.713Z,98.55
2022-08-08T23:22:01.876Z,98.80
2022-08-08T23:24:36.218Z,97.86
2022-08-08T23:27:06.643Z,97.86
2022-08-08T23:29:35.862Z,97.82
2022-08-08T23:32:10.230Z,97.58
2022-08-08T23:34:49.640Z,97.68
2022-08-08T23:38:00.653Z,98.07
2022-08-08T23:40:22.688Z,97.93
2022-08-08T23:42:52.333Z,97.39
2022-08-08T23:49:00.078Z,97.54
2022-08-08T23:49:02.865Z,97.30
2022-08-08T23:51:02.285Z,96.02
2022-08-08T23:54:05.358Z,95.92
2022-08-08T23:56:32.383Z,96.70
2022-08-08T23:59:04.322Z,97.05
